createdAt,value
2019-03-29T00:01:29.506Z,152.90
2019-03-29T00:04:00.846Z,141.25
2019-03-29T00:06:31.729Z,141.22
2019-03-29T00:09:02.383Z,169.85
2019-03-29T00:11:33.239Z,156.47
2019-03-29T00:14:03.869Z,131.63
2019-03-29T00:16:38.406Z,129.40
2019-03-29T00:19:09.181Z,120.60
2019-03-29T00:21:39.914Z,106.92
2019-03-29T00:24:10.583Z,102.95
2019-03-29T00:26:41.336Z,114.32
2019-03-29T00:29:11.972Z,104.70
2019-03-29T00:31:42.743Z,110.95
2019-03-29T00:34:13.394Z,123.25
2019-03-29T00:36:44.254Z,118.17
2019-03-29T00:39:15.253Z,117.00
2019-03-29T00:41:46.064Z,115.77
2019-03-29T00:44:17.008Z,111.57
2019-03-29T00:46:47.897Z,103.92
2019-03-29T00:49:18.533Z,107.47
2019-03-29T00:51:49.283Z,98.90
2019-03-29T00:54:20.141Z,103.12
2019-03-29T00:56:50.895Z,105.17
2019-03-29T00:59:21.427Z,100.65
2019-03-29T01:01:53.407Z,111.68
2019-03-29T01:04:24.286Z,110.12
2019-03-29T01:06:55.036Z,109.95
2019-03-29T01:09:25.788Z,107.00
2019-03-29T01:11:56.645Z,106.37
2019-03-29T01:14:27.502Z,124.33
2019-03-29T01:16:58.254Z,111.52
2019-03-29T01:19:29.188Z,104.75
2019-03-29T01:22:00.564Z,117.80
2019-03-29T01:24:31.434Z,154.15
2019-03-29T01:27:02.291Z,137.35
2019-03-29T01:29:33.046Z,119.05
2019-03-29T01:32:03.801Z,121.02
2019-03-29T01:34:34.551Z,123.62
2019-03-29T01:37:05.309Z,122.07
2019-03-29T01:39:36.059Z,121.42
2019-03-29T01:42:07.124Z,113.00
2019-03-29T01:44:37.467Z,125.12
2019-03-29T01:47:08.203Z,115.88
2019-03-29T01:49:38.975Z,122.58
2019-03-29T01:52:09.607Z,131.82
2019-03-29T01:54:40.362Z,122.62
2019-03-29T01:57:11.237Z,113.40
2019-03-29T01:59:42.321Z,130.15
2019-03-29T02:02:14.772Z,126.78
2019-03-29T02:04:45.542Z,95.80
2019-03-29T02:07:16.193Z,95.45
2019-03-29T02:09:46.927Z,84.55
2019-03-29T02:12:17.905Z,69.85
2019-03-29T02:14:48.657Z,57.85
2019-03-29T02:17:19.312Z,59.60
2019-03-29T02:19:50.169Z,61.63
2019-03-29T02:22:20.904Z,58.13
2019-03-29T02:24:51.557Z,58.87
2019-03-29T02:27:22.267Z,75.12
2019-03-29T02:29:53.182Z,75.42
2019-03-29T02:32:25.098Z,64.45
2019-03-29T02:34:56.019Z,67.90
2019-03-29T02:37:26.664Z,83.58
2019-03-29T02:39:57.409Z,81.35
2019-03-29T02:42:28.270Z,71.90
2019-03-29T02:44:59.036Z,68.97
2019-03-29T02:47:29.687Z,57.70
2019-03-29T02:50:00.539Z,48.45
2019-03-29T02:52:31.409Z,61.40
2019-03-29T02:55:02.033Z,54.15
2019-03-29T02:57:32.906Z,52.53
2019-03-29T03:00:04.993Z,40.75
2019-03-29T03:02:36.562Z,46.48
2019-03-29T03:05:08.349Z,45.15
2019-03-29T03:07:38.890Z,37.53
2019-03-29T03:10:10.061Z,39.03
2019-03-29T03:12:40.509Z,42.03
2019-03-29T03:15:11.028Z,34.88
2019-03-29T03:17:41.904Z,35.55
2019-03-29T03:20:15.909Z,31.30
2019-03-29T03:22:46.376Z,38.00
2019-03-29T03:25:17.027Z,31.42
2019-03-29T03:27:47.784Z,29.72
2019-03-29T03:30:18.638Z,32.03
2019-03-29T03:32:49.404Z,35.13
2019-03-29T03:35:19.941Z,38.67
2019-03-29T03:37:50.798Z,45.33
2019-03-29T03:40:21.558Z,38.38
2019-03-29T03:42:52.287Z,35.70
2019-03-29T03:45:22.958Z,32.98
2019-03-29T03:47:53.794Z,50.00
2019-03-29T03:50:40.552Z,46.63
2019-03-29T03:53:11.092Z,40.78
2019-03-29T03:55:42.174Z,41.08
2019-03-29T03:58:12.943Z,33.08
2019-03-29T04:00:55.233Z,38.65
2019-03-29T04:03:27.090Z,38.90
2019-03-29T04:05:57.507Z,39.35
2019-03-29T04:08:28.169Z,45.30
2019-03-29T04:10:59.027Z,44.45
2019-03-29T04:13:38.970Z,52.90
2019-03-29T04:16:09.739Z,56.35
2019-03-29T04:18:40.394Z,63.58
2019-03-29T04:21:11.130Z,65.40
2019-03-29T04:23:41.901Z,58.20
2019-03-29T04:26:12.651Z,53.17
2019-03-29T04:28:43.303Z,59.73
2019-03-29T04:31:14.257Z,58.70
2019-03-29T04:33:45.101Z,47.00
2019-03-29T04:36:15.766Z,45.33
2019-03-29T04:38:46.522Z,51.23
2019-03-29T04:41:17.265Z,41.65
2019-03-29T04:43:48.031Z,50.48
2019-03-29T04:46:18.683Z,52.62
2019-03-29T04:48:49.547Z,51.98
2019-03-29T04:51:20.290Z,46.80
2019-03-29T04:53:51.042Z,62.35
2019-03-29T04:56:21.696Z,54.98
2019-03-29T04:58:52.551Z,66.10
2019-03-29T05:01:23.306Z,50.92
2019-03-29T05:03:55.070Z,55.73
2019-03-29T05:06:25.716Z,54.27
2019-03-29T05:11:26.319Z,42.93
2019-03-29T05:13:56.973Z,52.03
2019-03-29T05:16:27.829Z,47.50
2019-03-29T05:18:58.685Z,48.65
2019-03-29T05:21:29.442Z,45.10
2019-03-29T05:24:00.075Z,42.70
2019-03-29T05:26:30.946Z,44.95
2019-03-29T05:29:01.702Z,42.43
2019-03-29T05:31:32.452Z,43.00
2019-03-29T05:34:03.312Z,37.48
2019-03-29T05:36:34.165Z,48.17
2019-03-29T05:39:05.964Z,41.55
2019-03-29T05:41:36.391Z,37.10
2019-03-29T05:44:07.023Z,42.48
2019-03-29T05:49:07.528Z,38.07
2019-03-29T05:51:38.279Z,37.30
2019-03-29T05:54:09.135Z,34.53
2019-03-29T05:56:39.996Z,35.88
2019-03-29T05:59:10.747Z,39.38
2019-03-29T06:01:41.284Z,34.20
2019-03-29T06:04:11.930Z,37.85
2019-03-29T06:06:42.802Z,33.48
2019-03-29T06:09:13.558Z,27.30
2019-03-29T06:11:44.206Z,27.17
2019-03-29T06:14:15.063Z,25.30
2019-03-29T06:16:45.818Z,30.50
2019-03-29T06:19:16.570Z,26.80
2019-03-29T06:21:47.223Z,33.58
2019-03-29T06:24:17.958Z,28.00
2019-03-29T06:26:48.753Z,29.20
2019-03-29T06:29:19.466Z,28.17
2019-03-29T06:34:20.070Z,26.20
2019-03-29T06:39:21.392Z,35.17
2019-03-29T06:41:52.321Z,33.02
2019-03-29T06:44:23.085Z,31.73
2019-03-29T06:46:53.739Z,34.10
2019-03-29T06:49:24.595Z,28.35
2019-03-29T06:51:55.349Z,30.48
2019-03-29T06:54:26.117Z,27.45
2019-03-29T06:56:56.843Z,26.17
2019-03-29T06:59:27.710Z,19.77
2019-03-29T07:01:58.347Z,33.33
2019-03-29T07:04:29.934Z,27.80
2019-03-29T07:07:00.573Z,23.55
2019-03-29T07:12:01.159Z,28.27
2019-03-29T07:14:31.808Z,28.05
2019-03-29T07:19:32.207Z,28.70
2019-03-29T07:22:03.270Z,26.70
2019-03-29T07:24:34.125Z,25.97
2019-03-29T07:27:04.880Z,29.10
2019-03-29T07:29:35.529Z,28.38
2019-03-29T07:32:06.387Z,28.42
2019-03-29T07:34:37.243Z,27.60
2019-03-29T07:37:07.999Z,27.50
2019-03-29T07:39:38.650Z,30.08
2019-03-29T07:42:09.504Z,33.53
2019-03-29T07:44:40.138Z,31.00
2019-03-29T07:47:10.911Z,29.55
2019-03-29T07:49:41.561Z,29.10
2019-03-29T07:52:12.296Z,26.70
2019-03-29T07:54:43.072Z,23.45
2019-03-29T07:57:14.026Z,25.65
2019-03-29T07:59:44.882Z,26.70
2019-03-29T08:02:15.519Z,24.50
2019-03-29T08:04:46.695Z,18.02
2019-03-29T08:07:27.065Z,18.87
2019-03-29T08:09:49.824Z,21.17
2019-03-29T08:12:22.027Z,17.65
2019-03-29T08:14:52.885Z,20.92
2019-03-29T08:17:23.843Z,19.27
2019-03-29T08:20:35.604Z,22.05
2019-03-29T08:22:35.317Z,21.10
2019-03-29T08:25:06.126Z,21.27
2019-03-29T08:27:36.995Z,24.77
2019-03-29T08:32:37.349Z,20.57
2019-03-29T08:35:08.101Z,18.73
2019-03-29T08:37:38.875Z,19.75
2019-03-29T08:40:09.509Z,19.67
2019-03-29T08:42:40.178Z,17.52
2019-03-29T08:45:10.830Z,13.68
2019-03-29T08:47:41.683Z,19.37
2019-03-29T08:50:12.424Z,22.93
2019-03-29T08:52:43.191Z,22.40
2019-03-29T08:55:17.240Z,18.50
2019-03-29T08:57:46.539Z,18.48
2019-03-29T09:00:20.464Z,14.90
2019-03-29T09:02:51.321Z,22.42
2019-03-29T09:05:23.201Z,19.40
2019-03-29T09:07:53.953Z,19.90
2019-03-29T09:10:26.190Z,14.58
2019-03-29T09:12:56.994Z,14.05
2019-03-29T09:15:27.890Z,18.70
2019-03-29T09:17:59.950Z,16.40
2019-03-29T09:20:34.104Z,12.55
2019-03-29T09:23:03.677Z,13.93
2019-03-29T09:25:34.427Z,14.38
2019-03-29T09:28:05.079Z,15.85
2019-03-29T09:30:38.100Z,20.72
2019-03-29T09:33:09.061Z,15.35
2019-03-29T09:35:42.569Z,15.08
2019-03-29T09:38:12.003Z,17.98
2019-03-29T09:40:46.613Z,14.20
2019-03-29T09:43:14.844Z,14.15
2019-03-29T09:45:45.695Z,11.08
2019-03-29T09:48:16.328Z,12.33
2019-03-29T09:50:50.562Z,12.68
2019-03-29T09:53:19.286Z,8.98
2019-03-29T09:55:53.281Z,9.25
2019-03-29T09:58:21.796Z,9.68
2019-03-29T10:03:22.402Z,11.50
2019-03-29T10:05:54.267Z,10.48
2019-03-29T10:08:25.137Z,12.47
2019-03-29T10:10:55.871Z,10.28
2019-03-29T10:13:26.541Z,11.45
2019-03-29T10:15:57.397Z,12.75
2019-03-29T10:18:28.152Z,11.48
2019-03-29T10:20:58.907Z,12.40
2019-03-29T10:23:29.555Z,8.15
2019-03-29T10:26:00.210Z,9.80
2019-03-29T10:28:30.739Z,9.70
2019-03-29T10:33:31.346Z,11.15
2019-03-29T10:36:03.519Z,12.80
2019-03-29T10:38:35.800Z,11.45
2019-03-29T10:41:11.687Z,11.90
2019-03-29T10:43:42.542Z,11.48
2019-03-29T10:46:13.279Z,11.28
2019-03-29T10:48:43.948Z,12.50
2019-03-29T10:51:16.320Z,13.88
2019-03-29T10:53:46.872Z,12.30
2019-03-29T10:56:17.629Z,11.63
2019-03-29T10:58:48.297Z,11.08
2019-03-29T11:01:19.133Z,20.55
2019-03-29T11:03:49.783Z,14.47
2019-03-29T11:06:21.576Z,12.35
2019-03-29T11:08:52.331Z,10.85
2019-03-29T11:14:17.960Z,11.50
2019-03-29T11:16:53.230Z,8.95
2019-03-29T11:19:23.679Z,10.20
2019-03-29T11:21:54.534Z,10.00
2019-03-29T11:24:26.924Z,9.03
2019-03-29T11:26:57.582Z,8.75
2019-03-29T11:29:29.641Z,10.70
2019-03-29T11:32:00.499Z,9.95
2019-03-29T11:34:31.149Z,9.18
2019-03-29T11:37:08.362Z,6.55
2019-03-29T11:39:39.016Z,3.70
2019-03-29T11:42:09.749Z,7.78
2019-03-29T11:44:40.521Z,9.15
2019-03-29T11:47:11.174Z,9.65
2019-03-29T11:49:42.029Z,9.53
2019-03-29T11:52:12.768Z,10.45
2019-03-29T11:54:44.050Z,9.40
2019-03-29T11:57:14.581Z,10.28
2019-03-29T11:59:45.456Z,10.03
2019-03-29T12:02:30.144Z,6.58
2019-03-29T12:04:48.090Z,9.33
2019-03-29T12:07:25.488Z,4.85
2019-03-29T12:09:56.141Z,8.45
2019-03-29T12:12:27.740Z,7.08
2019-03-29T12:14:58.247Z,6.28
2019-03-29T12:17:28.897Z,7.05
2019-03-29T12:19:59.668Z,8.75
2019-03-29T12:22:30.526Z,7.87
2019-03-29T12:25:01.374Z,10.43
2019-03-29T12:27:32.032Z,6.03
2019-03-29T12:30:02.694Z,8.15
2019-03-29T12:32:33.221Z,7.17
2019-03-29T12:35:05.519Z,5.95
2019-03-29T12:37:35.969Z,5.75
2019-03-29T12:42:38.072Z,9.38
2019-03-29T12:45:11.298Z,9.70
2019-03-29T12:47:42.154Z,8.75
2019-03-29T12:50:12.888Z,8.70
2019-03-29T12:52:43.559Z,7.30
2019-03-29T12:55:14.396Z,7.92
2019-03-29T12:57:45.057Z,7.47
2019-03-29T13:00:16.023Z,5.83
2019-03-29T13:02:47.086Z,8.25
2019-03-29T13:05:17.944Z,11.83
2019-03-29T13:07:52.904Z,5.22
2019-03-29T13:10:21.786Z,5.37
2019-03-29T13:15:23.515Z,10.10
2019-03-29T13:17:54.252Z,5.67
2019-03-29T13:22:54.753Z,7.22
2019-03-29T13:25:25.712Z,7.83
2019-03-29T13:27:59.445Z,9.43
2019-03-29T13:30:28.856Z,7.03
2019-03-29T13:32:59.609Z,10.80
2019-03-29T13:35:30.263Z,6.37
2019-03-29T13:38:01.117Z,9.20
2019-03-29T13:40:31.854Z,6.85
2019-03-29T13:43:02.978Z,11.20
2019-03-29T13:45:33.785Z,7.58
2019-03-29T13:48:04.540Z,8.28
2019-03-29T13:53:05.025Z,7.70
2019-03-29T13:55:35.760Z,9.95
2019-03-29T13:58:06.308Z,6.75
2019-03-29T14:03:06.693Z,5.90
2019-03-29T14:05:37.240Z,4.37
2019-03-29T14:08:09.033Z,8.25
2019-03-29T14:10:39.258Z,9.50
2019-03-29T14:15:39.642Z,11.23
2019-03-29T14:18:10.312Z,8.63
2019-03-29T14:23:10.574Z,8.73
2019-03-29T14:25:41.328Z,8.13
2019-03-29T14:28:13.514Z,7.62
2019-03-29T14:30:44.167Z,10.65
2019-03-29T14:33:15.013Z,10.75
2019-03-29T14:35:46.357Z,11.45
2019-03-29T14:38:17.472Z,11.22
2019-03-29T14:40:48.229Z,10.25
2019-03-29T14:43:18.976Z,8.50
2019-03-29T14:45:49.835Z,6.75
2019-03-29T14:48:20.382Z,9.23
2019-03-29T14:53:38.993Z,8.83
2019-03-29T14:56:15.189Z,8.98
2019-03-29T14:58:53.391Z,8.53
2019-03-29T15:01:38.580Z,9.45
2019-03-29T15:04:09.290Z,8.13
2019-03-29T15:06:39.823Z,9.33
2019-03-29T15:09:11.514Z,11.97
2019-03-29T15:11:42.373Z,14.38
2019-03-29T15:14:13.024Z,9.25
2019-03-29T15:19:13.121Z,10.10
2019-03-29T15:24:13.686Z,16.40
2019-03-29T15:26:44.424Z,13.48
2019-03-29T15:29:15.092Z,9.75
2019-03-29T15:34:15.456Z,12.50
2019-03-29T15:39:17.389Z,12.58
2019-03-29T15:41:48.130Z,12.18
2019-03-29T15:44:19.208Z,13.00
2019-03-29T15:46:49.738Z,17.02
2019-03-29T15:49:20.506Z,16.70
2019-03-29T15:51:51.364Z,10.98
2019-03-29T15:54:22.017Z,14.80
2019-03-29T15:59:22.384Z,18.07
2019-03-29T16:01:53.159Z,17.48
2019-03-29T16:04:23.684Z,15.00
2019-03-29T16:06:54.560Z,16.62
2019-03-29T16:09:26.335Z,18.30
2019-03-29T16:11:57.075Z,16.40
2019-03-29T16:14:27.846Z,15.08
2019-03-29T16:16:58.493Z,10.05
2019-03-29T16:19:29.246Z,14.83
2019-03-29T16:22:00.005Z,12.90
2019-03-29T16:24:30.767Z,20.08
2019-03-29T16:27:01.401Z,24.75
2019-03-29T16:29:32.266Z,18.77
2019-03-29T16:32:03.025Z,24.65
2019-03-29T16:34:33.774Z,22.77
2019-03-29T16:37:04.424Z,21.97
2019-03-29T16:39:35.280Z,23.38
2019-03-29T16:42:06.034Z,25.05
2019-03-29T16:44:36.788Z,24.18
2019-03-29T16:47:07.645Z,26.70
2019-03-29T16:49:38.500Z,21.02
2019-03-29T16:52:09.154Z,35.60
2019-03-29T16:54:39.787Z,27.98
2019-03-29T16:57:10.667Z,31.35
2019-03-29T16:59:41.414Z,27.55
2019-03-29T17:02:12.167Z,26.35
2019-03-29T17:04:42.699Z,26.33
2019-03-29T17:07:13.469Z,20.50
2019-03-29T17:09:45.247Z,21.02
2019-03-29T17:12:16.103Z,26.20
2019-03-29T17:14:46.856Z,23.20
2019-03-29T17:17:17.510Z,26.00
2019-03-29T17:19:48.368Z,29.42
2019-03-29T17:22:19.004Z,26.87
2019-03-29T17:24:56.830Z,22.82
2019-03-29T17:27:21.956Z,25.80
2019-03-29T17:29:52.812Z,25.77
2019-03-29T17:34:53.195Z,24.40
2019-03-29T17:37:24.563Z,23.15
2019-03-29T17:39:55.096Z,24.55
2019-03-29T17:42:26.070Z,25.50
2019-03-29T17:44:59.022Z,26.93
2019-03-29T17:47:29.007Z,31.93
2019-03-29T17:49:59.661Z,30.80
2019-03-29T17:52:30.518Z,27.05
2019-03-29T17:55:01.254Z,29.92
2019-03-29T17:57:32.023Z,26.80
2019-03-29T18:00:02.865Z,30.08
2019-03-29T18:02:33.412Z,29.18
2019-03-29T18:05:05.880Z,30.25
2019-03-29T18:07:36.249Z,24.85
2019-03-29T18:10:08.100Z,28.35
2019-03-29T18:12:38.372Z,26.75
2019-03-29T18:15:09.126Z,29.57
2019-03-29T18:20:09.524Z,31.40
2019-03-29T18:22:40.276Z,29.55
2019-03-29T18:25:11.135Z,31.77
2019-03-29T18:27:41.992Z,29.00
2019-03-29T18:30:14.568Z,25.68
2019-03-29T18:32:45.321Z,21.95
2019-03-29T18:35:15.973Z,25.40
2019-03-29T18:37:46.744Z,22.82
2019-03-29T18:40:23.329Z,23.95
2019-03-29T18:42:54.974Z,29.27
2019-03-29T18:45:25.349Z,24.23
2019-03-29T18:47:56.437Z,22.30
2019-03-29T18:50:26.857Z,29.82
2019-03-29T18:52:57.611Z,26.42
2019-03-29T18:55:28.348Z,23.07
2019-03-29T18:57:59.118Z,29.75
2019-03-29T19:00:31.384Z,31.93
2019-03-29T19:03:01.757Z,24.77
2019-03-29T19:05:32.604Z,31.27
2019-03-29T19:08:03.767Z,28.05
2019-03-29T19:10:35.134Z,25.10
2019-03-29T19:13:05.467Z,28.87
2019-03-29T19:15:36.236Z,25.45
2019-03-29T19:18:06.889Z,25.62
2019-03-29T19:20:37.640Z,27.82
2019-03-29T19:23:08.497Z,24.63
2019-03-29T19:25:39.252Z,28.23
2019-03-29T19:28:09.781Z,30.60
2019-03-29T19:30:40.655Z,28.62
2019-03-29T19:33:11.510Z,31.60
2019-03-29T19:35:42.146Z,31.55
2019-03-29T19:40:42.750Z,44.03
2019-03-29T19:43:13.403Z,44.40
2019-03-29T19:45:44.153Z,34.45
2019-03-29T19:48:15.013Z,36.45
2019-03-29T19:50:45.766Z,33.80
2019-03-29T19:53:16.364Z,38.38
2019-03-29T19:55:47.214Z,38.13
2019-03-29T19:58:18.097Z,37.15
2019-03-29T20:00:48.896Z,38.48
2019-03-29T20:03:19.659Z,43.65
2019-03-29T20:05:50.498Z,41.70
2019-03-29T20:08:21.124Z,47.67
2019-03-29T20:10:52.803Z,50.15
2019-03-29T20:13:23.164Z,45.20
2019-03-29T20:15:53.798Z,52.73
2019-03-29T20:20:54.180Z,52.90
2019-03-29T20:23:24.954Z,45.67
2019-03-29T20:25:55.500Z,42.35
2019-03-29T20:28:26.356Z,39.90
2019-03-29T20:30:56.989Z,40.48
2019-03-29T20:33:27.765Z,40.78
2019-03-29T20:35:58.294Z,41.40
2019-03-29T20:38:29.167Z,36.70
2019-03-29T20:41:00.026Z,39.92
2019-03-29T20:43:30.662Z,34.78
2019-03-29T20:48:31.268Z,50.55
2019-03-29T20:51:01.897Z,39.45
2019-03-29T20:53:32.771Z,30.80
2019-03-29T20:56:09.336Z,30.05
2019-03-29T20:58:39.987Z,32.95
2019-03-29T21:01:10.642Z,31.70
2019-03-29T21:06:11.143Z,28.47
2019-03-29T21:08:41.895Z,26.20
2019-03-29T21:11:13.556Z,27.40
2019-03-29T21:13:44.019Z,30.00
2019-03-29T21:16:14.650Z,31.05
2019-03-29T21:18:45.404Z,35.63
2019-03-29T21:21:16.156Z,28.80
2019-03-29T21:23:47.386Z,28.50
2019-03-29T21:26:17.994Z,27.52
2019-03-29T21:28:48.856Z,40.75
2019-03-29T21:31:19.600Z,37.55
2019-03-29T21:33:50.135Z,52.75
2019-03-29T21:38:50.899Z,57.95
2019-03-29T21:41:21.590Z,45.70
2019-03-29T21:43:52.329Z,40.40
2019-03-29T21:46:23.099Z,31.07
2019-03-29T21:48:53.746Z,38.58
2019-03-29T21:51:24.604Z,34.90
2019-03-29T21:53:55.362Z,29.80
2019-03-29T21:56:26.097Z,32.17
2019-03-29T21:58:56.766Z,33.92
2019-03-29T22:01:27.623Z,31.50
2019-03-29T22:03:58.377Z,34.60
2019-03-29T22:06:29.132Z,40.17
2019-03-29T22:08:59.987Z,35.75
2019-03-29T22:11:31.855Z,33.95
2019-03-29T22:14:02.724Z,34.13
2019-03-29T22:16:33.475Z,31.07
2019-03-29T22:19:04.128Z,37.88
2019-03-29T22:21:34.984Z,35.08
2019-03-29T22:24:05.623Z,35.28
2019-03-29T22:26:36.373Z,36.23
2019-03-29T22:29:06.961Z,35.35
2019-03-29T22:31:37.795Z,33.73
2019-03-29T22:34:08.424Z,39.20
2019-03-29T22:36:39.200Z,33.23
2019-03-29T22:39:09.731Z,27.70
2019-03-29T22:41:40.606Z,29.82
2019-03-29T22:44:11.358Z,26.80
2019-03-29T22:46:42.111Z,26.33
2019-03-29T22:49:12.763Z,25.75
2019-03-29T22:51:43.621Z,30.45
2019-03-29T22:54:14.253Z,29.07
2019-03-29T22:56:45.025Z,31.50
2019-03-29T22:59:15.680Z,27.98
2019-03-29T23:01:46.742Z,31.10
2019-03-29T23:04:17.490Z,36.15
2019-03-29T23:06:48.141Z,34.05
2019-03-29T23:09:18.879Z,29.05
2019-03-29T23:11:50.887Z,31.02
2019-03-29T23:14:21.617Z,32.05
2019-03-29T23:16:52.387Z,32.20
2019-03-29T23:19:23.043Z,33.75
2019-03-29T23:21:53.896Z,29.55
2019-03-29T23:24:24.531Z,26.73
2019-03-29T23:26:55.284Z,28.62
2019-03-29T23:29:25.935Z,35.73
2019-03-29T23:31:56.809Z,40.50
2019-03-29T23:34:27.564Z,49.03
2019-03-29T23:36:58.314Z,46.95
2019-03-29T23:39:28.968Z,36.50
2019-03-29T23:41:59.823Z,31.17
2019-03-29T23:44:30.456Z,32.95
2019-03-29T23:47:01.228Z,29.52
2019-03-29T23:49:31.880Z,26.80
2019-03-29T23:52:02.728Z,24.65
2019-03-29T23:54:33.491Z,31.27
2019-03-29T23:57:04.349Z,27.52
2019-03-29T23:59:35.203Z,28.35
